sensor_id;sensor_type;location;lat;lon;timestamp;pressure;altitude;pressure_sealevel;temperature;humidity
55914;BME280;58179;48.776;9.124;2023-05-20T00:00:44;97441.19;;;10.00;100.00
55914;BME280;58179;48.776;9.124;2023-05-20T00:03:10;97439.63;;;9.99;100.00
55914;BME280;58179;48.776;9.124;2023-05-20T00:05:38;97444.34;;;9.97;100.00
55914;BME280;58179;48.776;9.124;2023-05-20T00:08:04;97436.91;;;9.94;100.00
55914;BME280;58179;48.776;9.124;2023-05-20T00:10:33;97432.97;;;9.96;100.00
55914;BME280;58179;48.776;9.124;2023-05-20T00:13:00;97442.69;;;9.91;100.00
55914;BME280;58179;48.776;9.124;2023-05-20T00:15:26;97436.19;;;9.98;100.00
55914;BME280;58179;48.776;9.124;2023-05-20T00:17:52;97432.75;;;9.98;100.00
55914;BME280;58179;48.776;9.124;2023-05-20T00:20:18;97438.81;;;9.98;100.00
55914;BME280;58179;48.776;9.124;2023-05-20T00:22:45;97435.13;;;9.99;100.00
55914;BME280;58179;48.776;9.124;2023-05-20T00:25:11;97436.66;;;9.95;100.00
55914;BME280;58179;48.776;9.124;2023-05-20T00:27:39;97432.41;;;9.94;100.00
55914;BME280;58179;48.776;9.124;2023-05-20T00:30:07;97432.16;;;9.96;100.00
55914;BME280;58179;48.776;9.124;2023-05-20T00:32:35;97430.00;;;9.93;100.00
55914;BME280;58179;48.776;9.124;2023-05-20T00:35:01;97428.72;;;9.95;100.00
55914;BME280;58179;48.776;9.124;2023-05-20T00:37:27;97424.81;;;9.98;100.00
55914;BME280;58179;48.776;9.124;2023-05-20T00:39:55;97432.50;;;9.99;100.00
55914;BME280;58179;48.776;9.124;2023-05-20T00:42:21;97425.09;;;10.01;100.00
55914;BME280;58179;48.776;9.124;2023-05-20T00:44:47;97424.84;;;10.03;100.00
55914;BME280;58179;48.776;9.124;2023-05-20T00:47:13;97434.38;;;10.04;100.00
55914;BME280;58179;48.776;9.124;2023-05-20T00:49:39;97430.47;;;10.06;100.00
55914;BME280;58179;48.776;9.124;2023-05-20T00:52:08;97436.59;;;10.12;100.00
55914;BME280;58179;48.776;9.124;2023-05-20T00:54:34;97434.75;;;10.13;100.00
55914;BME280;58179;48.776;9.124;2023-05-20T00:57:03;97432.53;;;10.21;100.00
55914;BME280;58179;48.776;9.124;2023-05-20T00:59:29;97425.66;;;10.25;100.00
55914;BME280;58179;48.776;9.124;2023-05-20T01:01:56;97428.06;;;10.27;100.00
55914;BME280;58179;48.776;9.124;2023-05-20T01:04:22;97417.63;;;10.37;100.00
55914;BME280;58179;48.776;9.124;2023-05-20T01:06:48;97418.94;;;10.39;100.00
55914;BME280;58179;48.776;9.124;2023-05-20T01:09:14;97420.88;;;10.44;100.00
55914;BME280;58179;48.776;9.124;2023-05-20T01:11:46;97416.38;;;10.44;100.00
55914;BME280;58179;48.776;9.124;2023-05-20T01:14:15;97415.84;;;10.47;100.00
55914;BME280;58179;48.776;9.124;2023-05-20T01:16:43;97413.78;;;10.50;100.00
55914;BME280;58179;48.776;9.124;2023-05-20T01:19:25;97412.47;;;10.52;100.00
55914;BME280;58179;48.776;9.124;2023-05-20T01:21:52;97414.94;;;10.59;100.00
55914;BME280;58179;48.776;9.124;2023-05-20T01:24:20;97419.41;;;10.58;100.00
55914;BME280;58179;48.776;9.124;2023-05-20T01:26:46;97418.09;;;10.61;100.00
55914;BME280;58179;48.776;9.124;2023-05-20T01:29:13;97415.28;;;10.67;100.00
55914;BME280;58179;48.776;9.124;2023-05-20T01:31:43;97412.56;;;10.62;100.00
55914;BME280;58179;48.776;9.124;2023-05-20T01:34:11;97404.06;;;10.60;100.00
55914;BME280;58179;48.776;9.124;2023-05-20T01:36:39;97407.06;;;10.69;100.00
55914;BME280;58179;48.776;9.124;2023-05-20T01:39:05;97405.41;;;10.63;100.00
55914;BME280;58179;48.776;9.124;2023-05-20T01:41:34;97405.97;;;10.65;100.00
55914;BME280;58179;48.776;9.124;2023-05-20T01:44:01;97405.47;;;10.68;100.00
55914;BME280;58179;48.776;9.124;2023-05-20T01:46:30;97401.75;;;10.69;100.00
55914;BME280;58179;48.776;9.124;2023-05-20T01:48:56;97395.44;;;10.70;100.00
55914;BME280;58179;48.776;9.124;2023-05-20T01:51:22;97393.63;;;10.75;100.00
55914;BME280;58179;48.776;9.124;2023-05-20T01:53:48;97407.16;;;10.79;100.00
55914;BME280;58179;48.776;9.124;2023-05-20T01:56:14;97402.94;;;10.83;100.00
55914;BME280;58179;48.776;9.124;2023-05-20T01:58:41;97397.66;;;10.83;100.00
55914;BME280;58179;48.776;9.124;2023-05-20T02:01:07;97396.88;;;10.82;100.00
55914;BME280;58179;48.776;9.124;2023-05-20T02:03:33;97401.63;;;10.80;100.00
55914;BME280;58179;48.776;9.124;2023-05-20T02:05:59;97402.25;;;10.93;100.00
55914;BME280;58179;48.776;9.124;2023-05-20T02:08:25;97399.63;;;10.98;100.00
55914;BME280;58179;48.776;9.124;2023-05-20T02:10:51;97395.31;;;10.86;100.00
55914;BME280;58179;48.776;9.124;2023-05-20T02:13:17;97397.72;;;10.88;100.00
55914;BME280;58179;48.776;9.124;2023-05-20T02:15:44;97389.13;;;10.76;100.00
55914;BME280;58179;48.776;9.124;2023-05-20T02:18:10;97396.75;;;10.67;100.00
55914;BME280;58179;48.776;9.124;2023-05-20T02:20:38;97393.78;;;10.64;100.00
55914;BME280;58179;48.776;9.124;2023-05-20T02:23:04;97395.03;;;10.56;100.00
55914;BME280;58179;48.776;9.124;2023-05-20T02:25:30;97401.03;;;10.46;100.00
55914;BME280;58179;48.776;9.124;2023-05-20T02:27:56;97395.69;;;10.41;100.00
55914;BME280;58179;48.776;9.124;2023-05-20T02:30:22;97393.53;;;10.38;100.00
55914;BME280;58179;48.776;9.124;2023-05-20T02:32:50;97395.94;;;10.40;100.00
55914;BME280;58179;48.776;9.124;2023-05-20T02:35:16;97396.09;;;10.28;100.00
55914;BME280;58179;48.776;9.124;2023-05-20T02:37:42;97400.25;;;10.24;100.00
55914;BME280;58179;48.776;9.124;2023-05-20T02:40:10;97398.38;;;10.20;100.00
55914;BME280;58179;48.776;9.124;2023-05-20T02:42:36;97396.94;;;10.12;100.00
55914;BME280;58179;48.776;9.124;2023-05-20T02:45:03;97395.28;;;10.06;100.00
55914;BME280;58179;48.776;9.124;2023-05-20T02:47:29;97397.38;;;10.04;100.00
55914;BME280;58179;48.776;9.124;2023-05-20T02:49:57;97393.72;;;10.10;100.00
55914;BME280;58179;48.776;9.124;2023-05-20T02:52:23;97384.94;;;10.04;100.00
55914;BME280;58179;48.776;9.124;2023-05-20T02:54:49;97393.16;;;10.08;100.00
55914;BME280;58179;48.776;9.124;2023-05-20T02:57:15;97392.03;;;9.99;100.00
55914;BME280;58179;48.776;9.124;2023-05-20T02:59:41;97392.28;;;9.97;100.00
55914;BME280;58179;48.776;9.124;2023-05-20T03:02:07;97402.28;;;9.95;100.00
55914;BME280;58179;48.776;9.124;2023-05-20T03:04:33;97394.34;;;9.95;100.00
55914;BME280;58179;48.776;9.124;2023-05-20T03:07:04;97395.91;;;9.91;100.00
55914;BME280;58179;48.776;9.124;2023-05-20T03:09:32;97395.34;;;9.89;100.00
55914;BME280;58179;48.776;9.124;2023-05-20T03:11:57;97397.19;;;9.89;100.00
55914;BME280;58179;48.776;9.124;2023-05-20T03:14:23;97391.91;;;9.89;100.00
55914;BME280;58179;48.776;9.124;2023-05-20T03:16:49;97389.00;;;9.90;100.00
55914;BME280;58179;48.776;9.124;2023-05-20T03:19:15;97388.69;;;9.87;100.00
55914;BME280;58179;48.776;9.124;2023-05-20T03:21:41;97387.59;;;9.83;100.00
55914;BME280;58179;48.776;9.124;2023-05-20T03:24:09;97386.19;;;9.75;100.00
55914;BME280;58179;48.776;9.124;2023-05-20T03:26:35;97391.72;;;9.74;100.00
55914;BME280;58179;48.776;9.124;2023-05-20T03:29:04;97390.59;;;9.69;100.00
55914;BME280;58179;48.776;9.124;2023-05-20T03:31:30;97386.84;;;9.65;100.00
55914;BME280;58179;48.776;9.124;2023-05-20T03:33:56;97389.91;;;9.57;100.00
55914;BME280;58179;48.776;9.124;2023-05-20T03:36:22;97385.91;;;9.55;100.00
55914;BME280;58179;48.776;9.124;2023-05-20T03:38:48;97388.97;;;9.47;100.00
55914;BME280;58179;48.776;9.124;2023-05-20T03:41:16;97398.66;;;9.41;100.00
55914;BME280;58179;48.776;9.124;2023-05-20T03:43:42;97391.47;;;9.37;100.00
55914;BME280;58179;48.776;9.124;2023-05-20T03:46:08;97395.09;;;9.30;100.00
55914;BME280;58179;48.776;9.124;2023-05-20T03:48:34;97402.38;;;9.23;100.00
55914;BME280;58179;48.776;9.124;2023-05-20T03:51:00;97403.41;;;9.22;100.00
55914;BME280;58179;48.776;9.124;2023-05-20T03:53:26;97405.09;;;9.28;100.00
55914;BME280;58179;48.776;9.124;2023-05-20T03:55:52;97411.56;;;9.38;100.00
55914;BME280;58179;48.776;9.124;2023-05-20T03:58:19;97405.88;;;9.46;100.00
55914;BME280;58179;48.776;9.124;2023-05-20T04:00:45;97403.34;;;9.56;100.00
55914;BME280;58179;48.776;9.124;2023-05-20T04:03:12;97395.00;;;9.64;100.00
55914;BME280;58179;48.776;9.124;2023-05-20T04:05:38;97396.66;;;9.70;100.00
55914;BME280;58179;48.776;9.124;2023-05-20T04:08:04;97395.72;;;9.76;100.00
55914;BME280;58179;48.776;9.124;2023-05-20T04:10:30;97393.13;;;9.81;100.00
55914;BME280;58179;48.776;9.124;2023-05-20T04:12:59;97399.34;;;9.92;100.00
55914;BME280;58179;48.776;9.124;2023-05-20T04:15:26;97394.41;;;10.00;100.00
55914;BME280;58179;48.776;9.124;2023-05-20T04:17:54;97404.81;;;10.07;100.00
55914;BME280;58179;48.776;9.124;2023-05-20T04:20:20;97394.38;;;10.17;100.00
55914;BME280;58179;48.776;9.124;2023-05-20T04:22:46;97395.78;;;10.25;100.00
55914;BME280;58179;48.776;9.124;2023-05-20T04:25:14;97403.28;;;10.33;100.00
55914;BME280;58179;48.776;9.124;2023-05-20T04:27:40;97397.28;;;10.42;100.00
55914;BME280;58179;48.776;9.124;2023-05-20T04:30:08;97389.72;;;10.51;100.00
55914;BME280;58179;48.776;9.124;2023-05-20T04:32:38;97392.19;;;10.63;100.00
55914;BME280;58179;48.776;9.124;2023-05-20T04:35:04;97383.78;;;10.71;100.00
55914;BME280;58179;48.776;9.124;2023-05-20T04:37:36;97384.38;;;10.78;100.00
55914;BME280;58179;48.776;9.124;2023-05-20T04:40:03;97378.63;;;10.86;100.00
55914;BME280;58179;48.776;9.124;2023-05-20T04:42:31;97373.09;;;10.88;100.00
55914;BME280;58179;48.776;9.124;2023-05-20T04:44:57;97376.06;;;10.96;100.00
55914;BME280;58179;48.776;9.124;2023-05-20T04:47:26;97377.94;;;11.01;100.00
55914;BME280;58179;48.776;9.124;2023-05-20T04:49:54;97376.69;;;11.13;100.00
55914;BME280;58179;48.776;9.124;2023-05-20T04:52:22;97374.63;;;11.20;100.00
55914;BME280;58179;48.776;9.124;2023-05-20T04:54:48;97375.22;;;11.28;100.00
55914;BME280;58179;48.776;9.124;2023-05-20T04:57:15;97378.47;;;11.35;100.00
55914;BME280;58179;48.776;9.124;2023-05-20T04:59:41;97377.44;;;11.41;100.00
55914;BME280;58179;48.776;9.124;2023-05-20T05:02:09;97379.59;;;11.49;100.00
55914;BME280;58179;48.776;9.124;2023-05-20T05:04:35;97388.91;;;11.56;100.00
55914;BME280;58179;48.776;9.124;2023-05-20T05:07:02;97388.44;;;11.64;100.00
55914;BME280;58179;48.776;9.124;2023-05-20T05:09:29;97386.88;;;11.74;100.00
55914;BME280;58179;48.776;9.124;2023-05-20T05:11:56;97383.50;;;11.83;100.00
55914;BME280;58179;48.776;9.124;2023-05-20T05:14:22;97386.97;;;11.89;100.00
55914;BME280;58179;48.776;9.124;2023-05-20T05:16:49;97382.75;;;11.93;100.00
55914;BME280;58179;48.776;9.124;2023-05-20T05:19:15;97375.09;;;12.01;100.00
55914;BME280;58179;48.776;9.124;2023-05-20T05:21:41;97379.09;;;12.09;100.00
55914;BME280;58179;48.776;9.124;2023-05-20T05:24:09;97375.41;;;12.20;100.00
55914;BME280;58179;48.776;9.124;2023-05-20T05:26:35;97370.91;;;12.26;100.00
55914;BME280;58179;48.776;9.124;2023-05-20T05:29:01;97369.59;;;12.28;100.00
55914;BME280;58179;48.776;9.124;2023-05-20T05:31:27;97365.63;;;12.36;100.00
55914;BME280;58179;48.776;9.124;2023-05-20T05:33:53;97357.94;;;12.45;100.00
55914;BME280;58179;48.776;9.124;2023-05-20T05:36:19;97361.16;;;12.62;100.00
55914;BME280;58179;48.776;9.124;2023-05-20T05:38:45;97366.47;;;12.62;100.00
55914;BME280;58179;48.776;9.124;2023-05-20T05:41:16;97359.06;;;12.69;100.00
55914;BME280;58179;48.776;9.124;2023-05-20T05:43:42;97354.00;;;12.77;100.00
55914;BME280;58179;48.776;9.124;2023-05-20T05:46:08;97345.22;;;12.87;100.00
55914;BME280;58179;48.776;9.124;2023-05-20T05:48:35;97346.53;;;12.95;100.00
55914;BME280;58179;48.776;9.124;2023-05-20T05:51:01;97349.47;;;13.08;100.00
55914;BME280;58179;48.776;9.124;2023-05-20T05:53:27;97350.00;;;13.10;100.00
55914;BME280;58179;48.776;9.124;2023-05-20T05:55:53;97357.72;;;13.27;100.00
55914;BME280;58179;48.776;9.124;2023-05-20T05:58:20;97356.09;;;13.31;100.00
55914;BME280;58179;48.776;9.124;2023-05-20T06:00:46;97354.50;;;13.40;100.00
55914;BME280;58179;48.776;9.124;2023-05-20T06:03:15;97346.22;;;13.47;100.00
55914;BME280;58179;48.776;9.124;2023-05-20T06:05:47;97354.19;;;13.57;100.00
55914;BME280;58179;48.776;9.124;2023-05-20T06:08:13;97352.84;;;13.65;100.00
55914;BME280;58179;48.776;9.124;2023-05-20T06:10:39;97352.00;;;13.74;100.00
55914;BME280;58179;48.776;9.124;2023-05-20T06:13:06;97352.50;;;13.86;100.00
55914;BME280;58179;48.776;9.124;2023-05-20T06:15:33;97351.09;;;13.99;100.00
55914;BME280;58179;48.776;9.124;2023-05-20T06:18:00;97345.47;;;14.11;100.00
55914;BME280;58179;48.776;9.124;2023-05-20T06:20:26;97346.72;;;14.23;100.00
55914;BME280;58179;48.776;9.124;2023-05-20T06:22:52;97342.94;;;14.29;100.00
55914;BME280;58179;48.776;9.124;2023-05-20T06:25:18;97349.84;;;14.36;100.00
55914;BME280;58179;48.776;9.124;2023-05-20T06:27:44;97346.06;;;14.47;100.00
55914;BME280;58179;48.776;9.124;2023-05-20T06:30:11;97346.50;;;14.59;100.00
55914;BME280;58179;48.776;9.124;2023-05-20T06:32:38;97346.22;;;14.65;100.00
55914;BME280;58179;48.776;9.124;2023-05-20T06:35:08;97342.91;;;14.79;100.00
55914;BME280;58179;48.776;9.124;2023-05-20T06:37:34;97339.66;;;14.87;100.00
55914;BME280;58179;48.776;9.124;2023-05-20T06:40:00;97334.78;;;14.94;100.00
55914;BME280;58179;48.776;9.124;2023-05-20T06:42:26;97326.13;;;15.07;100.00
55914;BME280;58179;48.776;9.124;2023-05-20T06:44:53;97331.06;;;15.24;100.00
55914;BME280;58179;48.776;9.124;2023-05-20T06:47:19;97326.72;;;15.28;100.00
55914;BME280;58179;48.776;9.124;2023-05-20T06:49:47;97326.41;;;15.34;100.00
55914;BME280;58179;48.776;9.124;2023-05-20T06:52:13;97317.66;;;15.29;100.00
55914;BME280;58179;48.776;9.124;2023-05-20T06:54:40;97324.97;;;15.42;100.00
55914;BME280;58179;48.776;9.124;2023-05-20T06:57:07;97326.75;;;15.52;100.00
55914;BME280;58179;48.776;9.124;2023-05-20T06:59:33;97331.31;;;15.75;100.00
55914;BME280;58179;48.776;9.124;2023-05-20T07:02:00;97328.59;;;15.80;100.00
55914;BME280;58179;48.776;9.124;2023-05-20T07:04:25;97324.84;;;15.81;100.00
55914;BME280;58179;48.776;9.124;2023-05-20T07:06:53;97327.78;;;15.79;100.00
55914;BME280;58179;48.776;9.124;2023-05-20T07:09:19;97317.91;;;15.80;100.00
55914;BME280;58179;48.776;9.124;2023-05-20T07:11:45;97316.06;;;15.99;100.00
55914;BME280;58179;48.776;9.124;2023-05-20T07:14:11;97315.56;;;15.97;100.00
55914;BME280;58179;48.776;9.124;2023-05-20T07:16:37;97315.00;;;16.00;100.00
55914;BME280;58179;48.776;9.124;2023-05-20T07:19:03;97301.72;;;16.14;100.00
55914;BME280;58179;48.776;9.124;2023-05-20T07:21:29;97294.16;;;16.21;100.00
55914;BME280;58179;48.776;9.124;2023-05-20T07:23:57;97298.47;;;16.17;100.00
55914;BME280;58179;48.776;9.124;2023-05-20T07:26:23;97296.59;;;16.36;100.00
55914;BME280;58179;48.776;9.124;2023-05-20T07:29:04;97299.16;;;16.60;100.00
55914;BME280;58179;48.776;9.124;2023-05-20T07:31:31;97290.34;;;16.78;100.00
55914;BME280;58179;48.776;9.124;2023-05-20T07:33:57;97282.00;;;16.98;100.00
55914;BME280;58179;48.776;9.124;2023-05-20T07:36:26;97285.72;;;16.84;100.00
55914;BME280;58179;48.776;9.124;2023-05-20T07:38:52;97287.13;;;16.62;100.00
55914;BME280;58179;48.776;9.124;2023-05-20T07:41:19;97293.66;;;16.70;100.00
55914;BME280;58179;48.776;9.124;2023-05-20T07:43:46;97286.94;;;16.54;100.00
55914;BME280;58179;48.776;9.124;2023-05-20T07:46:11;97286.44;;;16.71;100.00
55914;BME280;58179;48.776;9.124;2023-05-20T07:48:39;97276.56;;;16.71;100.00
55914;BME280;58179;48.776;9.124;2023-05-20T07:51:05;97272.00;;;16.72;100.00
55914;BME280;58179;48.776;9.124;2023-05-20T07:53:31;97270.44;;;16.84;100.00
55914;BME280;58179;48.776;9.124;2023-05-20T07:55:59;97277.13;;;17.00;100.00
55914;BME280;58179;48.776;9.124;2023-05-20T07:58:28;97277.34;;;17.18;100.00
55914;BME280;58179;48.776;9.124;2023-05-20T08:00:54;97274.78;;;17.40;100.00
55914;BME280;58179;48.776;9.124;2023-05-20T08:03:20;97270.41;;;17.30;100.00
55914;BME280;58179;48.776;9.124;2023-05-20T08:05:47;97278.75;;;17.42;100.00
55914;BME280;58179;48.776;9.124;2023-05-20T08:08:13;97266.34;;;17.47;100.00
55914;BME280;58179;48.776;9.124;2023-05-20T08:10:39;97270.22;;;17.40;100.00
55914;BME280;58179;48.776;9.124;2023-05-20T08:13:04;97268.06;;;17.29;100.00
55914;BME280;58179;48.776;9.124;2023-05-20T08:15:32;97271.19;;;17.17;100.00
55914;BME280;58179;48.776;9.124;2023-05-20T08:17:58;97268.94;;;17.38;100.00
55914;BME280;58179;48.776;9.124;2023-05-20T08:20:24;97268.16;;;17.51;100.00
55914;BME280;58179;48.776;9.124;2023-05-20T08:22:51;97281.06;;;17.63;100.00
55914;BME280;58179;48.776;9.124;2023-05-20T08:25:17;97280.53;;;17.74;100.00
55914;BME280;58179;48.776;9.124;2023-05-20T08:27:43;97280.75;;;17.78;100.00
55914;BME280;58179;48.776;9.124;2023-05-20T08:30:11;97285.88;;;17.74;100.00
55914;BME280;58179;48.776;9.124;2023-05-20T08:32:40;97294.72;;;17.61;100.00
55914;BME280;58179;48.776;9.124;2023-05-20T08:35:07;97292.84;;;17.62;100.00
55914;BME280;58179;48.776;9.124;2023-05-20T08:37:33;97280.84;;;17.73;100.00
55914;BME280;58179;48.776;9.124;2023-05-20T08:39:59;97284.72;;;17.67;100.00
55914;BME280;58179;48.776;9.124;2023-05-20T08:42:26;97286.97;;;17.60;100.00
55914;BME280;58179;48.776;9.124;2023-05-20T08:44:52;97294.16;;;17.64;100.00
55914;BME280;58179;48.776;9.124;2023-05-20T08:47:19;97285.88;;;17.74;100.00
55914;BME280;58179;48.776;9.124;2023-05-20T08:49:49;97292.41;;;18.09;100.00
55914;BME280;58179;48.776;9.124;2023-05-20T08:52:17;97290.72;;;18.36;100.00
55914;BME280;58179;48.776;9.124;2023-05-20T08:54:48;97286.75;;;18.69;100.00
55914;BME280;58179;48.776;9.124;2023-05-20T08:57:14;97284.00;;;18.83;100.00
55914;BME280;58179;48.776;9.124;2023-05-20T08:59:41;97274.97;;;19.10;100.00
55914;BME280;58179;48.776;9.124;2023-05-20T09:02:08;97283.78;;;19.32;100.00
55914;BME280;58179;48.776;9.124;2023-05-20T09:04:35;97282.16;;;19.54;93.56
55914;BME280;58179;48.776;9.124;2023-05-20T09:07:03;97276.63;;;19.50;96.92
55914;BME280;58179;48.776;9.124;2023-05-20T09:09:31;97275.53;;;19.60;89.30
55914;BME280;58179;48.776;9.124;2023-05-20T09:11:58;97272.66;;;19.48;93.48
55914;BME280;58179;48.776;9.124;2023-05-20T09:14:24;97275.72;;;19.32;92.54
55914;BME280;58179;48.776;9.124;2023-05-20T09:16:51;97271.47;;;19.40;92.19
55914;BME280;58179;48.776;9.124;2023-05-20T09:19:19;97274.16;;;19.40;92.82
55914;BME280;58179;48.776;9.124;2023-05-20T09:21:46;97266.88;;;19.23;94.01
55914;BME280;58179;48.776;9.124;2023-05-20T09:24:13;97266.22;;;19.26;93.61
55914;BME280;58179;48.776;9.124;2023-05-20T09:26:39;97266.22;;;19.26;93.98
55914;BME280;58179;48.776;9.124;2023-05-20T09:29:05;97266.56;;;19.33;87.67
55914;BME280;58179;48.776;9.124;2023-05-20T09:31:33;97265.31;;;19.40;92.06
55914;BME280;58179;48.776;9.124;2023-05-20T09:34:00;97262.59;;;19.53;93.63
55914;BME280;58179;48.776;9.124;2023-05-20T09:36:28;97264.25;;;19.97;91.77
55914;BME280;58179;48.776;9.124;2023-05-20T09:38:59;97265.03;;;20.15;89.65
55914;BME280;58179;48.776;9.124;2023-05-20T09:41:34;97259.97;;;20.31;89.33
55914;BME280;58179;48.776;9.124;2023-05-20T09:44:03;97263.50;;;20.48;82.63
55914;BME280;58179;48.776;9.124;2023-05-20T09:46:32;97262.66;;;20.82;87.76
55914;BME280;58179;48.776;9.124;2023-05-20T09:48:59;97265.34;;;20.82;81.95
55914;BME280;58179;48.776;9.124;2023-05-20T09:51:26;97261.66;;;21.04;81.37
55914;BME280;58179;48.776;9.124;2023-05-20T09:53:54;97252.31;;;21.19;79.72
55914;BME280;58179;48.776;9.124;2023-05-20T09:56:23;97251.06;;;21.46;79.89
55914;BME280;58179;48.776;9.124;2023-05-20T09:58:52;97241.16;;;21.58;74.60
55914;BME280;58179;48.776;9.124;2023-05-20T10:01:24;97241.75;;;22.02;78.07
55914;BME280;58179;48.776;9.124;2023-05-20T10:03:51;97242.91;;;22.67;78.77
55914;BME280;58179;48.776;9.124;2023-05-20T10:06:39;97229.56;;;23.28;71.72
55914;BME280;58179;48.776;9.124;2023-05-20T10:09:22;97222.84;;;24.22;69.99
55914;BME280;58179;48.776;9.124;2023-05-20T10:12:01;97224.53;;;24.98;66.38
55914;BME280;58179;48.776;9.124;2023-05-20T10:14:57;97216.09;;;25.63;63.13
55914;BME280;58179;48.776;9.124;2023-05-20T10:17:38;97214.44;;;25.93;59.73
55914;BME280;58179;48.776;9.124;2023-05-20T10:20:06;97210.78;;;26.05;61.45
55914;BME280;58179;48.776;9.124;2023-05-20T10:22:37;97204.56;;;25.85;58.20
55914;BME280;58179;48.776;9.124;2023-05-20T10:25:22;97204.22;;;26.06;59.14
55914;BME280;58179;48.776;9.124;2023-05-20T10:27:50;97197.81;;;25.79;58.25
55914;BME280;58179;48.776;9.124;2023-05-20T10:30:20;97210.66;;;25.31;59.26
55914;BME280;58179;48.776;9.124;2023-05-20T10:32:53;97217.56;;;25.29;59.38
55914;BME280;58179;48.776;9.124;2023-05-20T10:35:23;97212.41;;;25.24;59.37
55914;BME280;58179;48.776;9.124;2023-05-20T10:37:53;97212.59;;;24.99;60.30
55914;BME280;58179;48.776;9.124;2023-05-20T10:40:22;97205.59;;;24.98;59.79
55914;BME280;58179;48.776;9.124;2023-05-20T10:42:48;97201.84;;;24.75;59.15
55914;BME280;58179;48.776;9.124;2023-05-20T10:45:26;97204.94;;;24.06;60.51
55914;BME280;58179;48.776;9.124;2023-05-20T10:47:57;97196.00;;;23.77;61.18
55914;BME280;58179;48.776;9.124;2023-05-20T10:50:27;97202.53;;;23.76;62.23
55914;BME280;58179;48.776;9.124;2023-05-20T10:52:54;97192.66;;;24.20;60.44
55914;BME280;58179;48.776;9.124;2023-05-20T10:55:22;97191.22;;;24.39;62.46
55914;BME280;58179;48.776;9.124;2023-05-20T10:57:48;97185.03;;;24.38;62.10
55914;BME280;58179;48.776;9.124;2023-05-20T11:00:16;97185.59;;;24.59;62.70
55914;BME280;58179;48.776;9.124;2023-05-20T11:02:45;97185.44;;;24.68;62.05
55914;BME280;58179;48.776;9.124;2023-05-20T11:05:12;97176.31;;;25.04;61.84
55914;BME280;58179;48.776;9.124;2023-05-20T11:07:41;97170.75;;;24.53;59.88
55914;BME280;58179;48.776;9.124;2023-05-20T11:10:09;97173.97;;;24.59;59.50
55914;BME280;58179;48.776;9.124;2023-05-20T11:12:35;97171.28;;;24.75;58.52
55914;BME280;58179;48.776;9.124;2023-05-20T11:15:01;97173.84;;;24.83;58.02
55914;BME280;58179;48.776;9.124;2023-05-20T11:17:28;97166.22;;;24.89;58.23
55914;BME280;58179;48.776;9.124;2023-05-20T11:19:56;97154.63;;;25.20;59.28
55914;BME280;58179;48.776;9.124;2023-05-20T11:22:25;97154.81;;;25.27;57.50
55914;BME280;58179;48.776;9.124;2023-05-20T11:24:51;97152.72;;;25.20;58.29
55914;BME280;58179;48.776;9.124;2023-05-20T11:27:18;97156.16;;;25.52;58.09
55914;BME280;58179;48.776;9.124;2023-05-20T11:29:44;97150.84;;;26.29;58.72
55914;BME280;58179;48.776;9.124;2023-05-20T11:32:11;97146.34;;;26.37;54.25
55914;BME280;58179;48.776;9.124;2023-05-20T11:34:38;97150.16;;;26.55;51.66
55914;BME280;58179;48.776;9.124;2023-05-20T11:37:08;97148.97;;;26.52;53.50
55914;BME280;58179;48.776;9.124;2023-05-20T11:39:35;97145.47;;;26.13;52.44
55914;BME280;58179;48.776;9.124;2023-05-20T11:42:02;97139.88;;;25.87;51.32
55914;BME280;58179;48.776;9.124;2023-05-20T11:44:30;97140.97;;;25.63;55.81
55914;BME280;58179;48.776;9.124;2023-05-20T11:47:00;97136.00;;;25.34;54.38
55914;BME280;58179;48.776;9.124;2023-05-20T11:49:28;97134.06;;;25.34;55.36
55914;BME280;58179;48.776;9.124;2023-05-20T11:51:56;97134.91;;;25.03;54.45
55914;BME280;58179;48.776;9.124;2023-05-20T11:54:24;97135.16;;;24.98;58.14
55914;BME280;58179;48.776;9.124;2023-05-20T11:56:52;97136.59;;;24.92;57.84
55914;BME280;58179;48.776;9.124;2023-05-20T11:59:18;97124.31;;;24.67;55.56
55914;BME280;58179;48.776;9.124;2023-05-20T12:01:45;97133.44;;;24.31;57.79
55914;BME280;58179;48.776;9.124;2023-05-20T12:04:11;97128.50;;;24.21;57.49
55914;BME280;58179;48.776;9.124;2023-05-20T12:06:42;97130.16;;;24.53;60.64
55914;BME280;58179;48.776;9.124;2023-05-20T12:09:09;97132.59;;;24.58;58.26
55914;BME280;58179;48.776;9.124;2023-05-20T12:11:37;97121.78;;;24.74;57.70
55914;BME280;58179;48.776;9.124;2023-05-20T12:14:07;97118.91;;;25.14;57.48
55914;BME280;58179;48.776;9.124;2023-05-20T12:16:35;97119.56;;;26.16;57.13
55914;BME280;58179;48.776;9.124;2023-05-20T12:19:01;97116.88;;;27.04;55.46
55914;BME280;58179;48.776;9.124;2023-05-20T12:21:28;97118.47;;;27.57;49.52
55914;BME280;58179;48.776;9.124;2023-05-20T12:23:57;97094.09;;;28.31;48.93
55914;BME280;58179;48.776;9.124;2023-05-20T12:26:24;97107.41;;;28.80;50.10
55914;BME280;58179;48.776;9.124;2023-05-20T12:28:52;97105.94;;;28.86;47.83
55914;BME280;58179;48.776;9.124;2023-05-20T12:31:18;97096.69;;;29.02;47.41
55914;BME280;58179;48.776;9.124;2023-05-20T12:33:45;97090.59;;;29.22;48.37
55914;BME280;58179;48.776;9.124;2023-05-20T12:36:11;97104.34;;;29.37;46.45
55914;BME280;58179;48.776;9.124;2023-05-20T12:38:38;97099.28;;;29.35;46.40
55914;BME280;58179;48.776;9.124;2023-05-20T12:41:04;97089.69;;;29.66;45.22
55914;BME280;58179;48.776;9.124;2023-05-20T12:43:32;97096.09;;;29.98;43.88
55914;BME280;58179;48.776;9.124;2023-05-20T12:46:01;97092.34;;;30.53;40.97
55914;BME280;58179;48.776;9.124;2023-05-20T12:48:27;97089.25;;;30.58;40.90
55914;BME280;58179;48.776;9.124;2023-05-20T12:50:53;97087.22;;;30.40;41.48
55914;BME280;58179;48.776;9.124;2023-05-20T12:53:19;97088.25;;;29.90;39.79
55914;BME280;58179;48.776;9.124;2023-05-20T12:55:45;97091.03;;;29.97;42.35